Data for 04/29/2009

Time Sea-Level Adjusted Pressure Absolute Pressure Temperature Relative Humidity Dew Point   
(mb) (inHg) (mb) (inHg) (C) (F) (%) (C) (F)
00:05 1016 30 845 24.95 -1.3 29.6 96 -1.8 28.7
00:10 1016 30 845 24.95 -1.4 29.5 97 -1.9 28.7
00:15 1016 30 845 24.95 -1.4 29.4 97 -1.9 28.6
00:20 1016 30 845 24.95 -1.4 29.4 97 -1.9 28.6
00:25 1016 30 846 24.98 -1.4 29.4 97 -1.9 28.6
00:30 1016 30 846 24.98 -1.4 29.4 97 -1.9 28.6
00:35 1016 30 845 24.95 -1.5 29.4 97 -1.9 28.6
00:40 1016 30 845 24.95 -1.4 29.5 97 -1.8 28.7
00:45 1016 30 845 24.95 -1.4 29.5 97 -1.8 28.7
00:50 1016 30 845 24.95 -1.4 29.4 96 -1.9 28.5
00:55 1016 30 845 24.95 -1.5 29.4 96 -2 28.5
01:00 1016 30 845 24.95 -1.4 29.4 97 -1.9 28.6
01:05 1016 30 845 24.95 -1.4 29.6 96 -1.9 28.6
01:10 1016 30 845 24.95 -1.4 29.5 96 -2 28.4
01:15 1016 30 845 24.95 -1.4 29.5 96 -1.9 28.5
01:20 1016 30 845 24.95 -1.3 29.6 96 -1.9 28.5
01:25 1016 30 845 24.95 -1.3 29.7 96 -1.9 28.7
01:30 1016 30 845 24.95 -1.2 29.8 96 -1.9 28.6
01:35 1016 30 845 24.95 -1.2 29.8 96 -1.8 28.8
01:40 1016 30 845 24.95 -1.3 29.7 96 -1.9 28.6
01:45 1016 30 845 24.95 -1.5 29.3 96 -2 28.4
01:50 1016 30 845 24.95 -1.6 29.1 97 -2 28.4
01:55 1016 30 845 24.95 -1.6 29 97 -2 28.4
02:00 1016 30 845 24.95 -1.7 28.9 98 -2 28.3
02:05 1016 30 845 24.95 -1.7 28.9 98 -2 28.4
02:10 1016 30 845 24.95 -1.7 28.9 98 -2.1 28.3
02:15 1016 30 845 24.95 -1.8 28.7 98 -2.1 28.2
02:20 1016 30 845 24.95 -1.8 28.7 98 -2.2 28.1
02:25 1016 30 845 24.95 -1.8 28.7 98 -2.1 28.1
02:30 1016 30 845 24.95 -1.9 28.6 97 -2.2 28
02:35 1016 30 845 24.95 -2 28.4 97 -2.3 27.8
02:40 1016 30 845 24.95 -2 28.4 97 -2.4 27.7
02:45 1016 30 845 24.95 -2.1 28.3 97 -2.4 27.6
02:50 1016 30 845 24.95 -2.1 28.2 98 -2.5 27.6
02:55 1016 30 845 24.95 -2.1 28.2 98 -2.5 27.6
03:00 1016 30 845 24.95 -2.2 28.1 97 -2.5 27.5
03:05 1016 30 846 24.98 -2.2 28.1 98 -2.5 27.5
03:10 1016 30 846 24.98 -2.2 28 98 -2.5 27.4
03:15 1016 30 846 24.98 -2.2 28 98 -2.5 27.4
03:20 1017 30.03 846 24.98 -2.3 27.9 98 -2.5 27.4
03:25 1017 30.03 846 24.98 -2.3 27.9 98 -2.6 27.3
03:30 1017 30.03 846 24.98 -2.3 27.9 98 -2.6 27.3
03:35 1017 30.03 846 24.98 -2.3 27.9 98 -2.6 27.4
03:40 1017 30.03 846 24.98 -2.3 27.8 98 -2.6 27.3
03:45 1017 30.03 846 24.98 -2.3 27.8 98 -2.6 27.3
03:50 1017 30.03 846 24.98 -2.3 27.8 98 -2.6 27.3
03:55 1017 30.03 846 24.98 -2.3 27.9 98 -2.6 27.4
04:00 1017 30.03 846 24.98 -2.3 27.9 98 -2.6 27.4
04:05 1017 30.03 846 24.98 -2.3 27.8 98 -2.6 27.3
04:10 1017 30.03 846 24.98 -2.3 27.9 98 -2.6 27.4
04:15 1017 30.03 846 24.98 -2.3 27.9 98 -2.6 27.3
04:20 1017 30.03 846 24.98 -2.3 27.9 98 -2.6 27.3
04:25 1017 30.03 846 24.98 -2.3 27.8 97 -2.7 27.1
04:30 1017 30.03 846 24.98 -2.4 27.7 97 -2.8 27
04:35 1017 30.03 846 24.98 -2.4 27.7 97 -2.8 27
04:40 1017 30.03 846 24.98 -2.4 27.7 97 -2.8 27
04:45 1017 30.03 847 25.01 -2.4 27.7 97 -2.8 27
04:50 1017 30.03 847 25.01 -2.4 27.7 98 -2.7 27.1
04:55 1017 30.03 847 25.01 -2.4 27.7 98 -2.7 27.2
05:00 1017 30.03 847 25.01 -2.3 27.8 98 -2.6 27.3
05:05 1018 30.06 847 25.01 -2.3 27.9 98 -2.6 27.3
05:10 1018 30.06 847 25.01 -2.2 28 98 -2.5 27.4
05:15 1018 30.06 847 25.01 -2.2 28 98 -2.5 27.5
05:20 1018 30.06 847 25.01 -2.2 28 98 -2.5 27.5
05:25 1018 30.06 847 25.01 -2.2 28.1 97 -2.5 27.4
05:30 1018 30.06 847 25.01 -2.2 28.1 97 -2.6 27.4
05:35 1018 30.06 847 25.01 -2.1 28.1 97 -2.5 27.5
05:40 1018 30.06 847 25.01 -2.1 28.2 97 -2.6 27.4
05:45 1018 30.06 847 25.01 -2.1 28.2 97 -2.6 27.4
05:50 1018 30.06 847 25.01 -2.1 28.2 96 -2.6 27.3
05:55 1018 30.06 847 25.01 -2.1 28.3 97 -2.5 27.4
06:00 1018 30.06 847 25.01 -2.1 28.3 96 -2.6 27.3
06:05 1018 30.06 847 25.01 -2.1 28.3 97 -2.4 27.6
06:10 1018 30.06 847 25.01 -2 28.4 97 -2.4 27.7
06:15 1018 30.06 847 25.01 -2 28.4 98 -2.3 27.8
06:20 1018 30.06 847 25.01 -2 28.4 97 -2.4 27.7
06:25 1018 30.06 847 25.01 -2.1 28.3 98 -2.4 27.7
06:30 1018 30.06 847 25.01 -2.1 28.3 98 -2.4 27.7
06:35 1018 30.06 847 25.01 -2.1 28.3 98 -2.4 27.7
06:40 1018 30.06 847 25.01 -2 28.4 98 -2.3 27.8
06:45 1018 30.06 847 25.01 -2 28.5 98 -2.2 28
06:50 1018 30.06 847 25.01 -1.9 28.5 98 -2.2 28
06:55 1018 30.06 847 25.01 -1.8 28.7 98 -2.1 28.2
07:00 1018 30.06 847 25.01 -1.8 28.7 97 -2.2 28
07:05 1018 30.06 847 25.01 -1.9 28.7 98 -2.2 28
07:10 1018 30.06 848 25.04 -1.9 28.6 97 -2.3 27.9
07:15 1018 30.06 848 25.04 -1.9 28.5 97 -2.3 27.8
07:20 1018 30.06 848 25.04 -2 28.4 97 -2.5 27.6
07:25 1018 30.06 848 25.04 -2 28.3 97 -2.5 27.5
07:30 1018 30.06 848 25.04 -2 28.4 97 -2.4 27.6
07:35 1019 30.09 848 25.04 -2 28.4 97 -2.4 27.7
07:40 1019 30.09 848 25.04 -2 28.5 96 -2.5 27.5
07:45 1019 30.09 848 25.04 -2 28.4 96 -2.5 27.6
07:50 1019 30.09 848 25.04 -1.9 28.6 95 -2.5 27.5
07:55 1019 30.09 848 25.04 -1.9 28.6 96 -2.5 27.5
08:00 1019 30.09 848 25.04 -1.9 28.6 95 -2.6 27.3
08:05 1019 30.09 848 25.04 -1.9 28.6 95 -2.6 27.3
08:10 1019 30.09 848 25.04 -1.9 28.6 95 -2.6 27.3
08:15 1019 30.09 848 25.04 -1.8 28.8 94 -2.6 27.3
08:20 1019 30.09 848 25.04 -1.9 28.6 94 -2.8 27
08:25 1019 30.09 848 25.04 -2 28.4 95 -2.8 27
08:30 1019 30.09 848 25.04 -1.9 28.5 95 -2.7 27.2
08:35 1019 30.09 848 25.04 -1.8 28.7 94 -2.7 27.2
08:40 1019 30.09 848 25.04 -1.9 28.6 95 -2.5 27.5
08:45 1019 30.09 848 25.04 -1.9 28.5 95 -2.7 27.2
08:50 1019 30.09 848 25.04 -1.9 28.7 94 -2.6 27.2
08:55 1019 30.09 848 25.04 -1.9 28.6 94 -2.7 27.1
09:00 1019 30.09 848 25.04 -1.8 28.7 95 -2.6 27.4
09:05 1019 30.09 848 25.04 -1.5 29.3 93 -2.5 27.6
09:10 1019 30.09 848 25.04 -1.4 29.5 92 -2.5 27.5
09:15 1019 30.09 848 25.04 -1.1 30 91 -2.4 27.6
09:20 1019 30.09 848 25.04 -0.9 30.4 90 -2.4 27.6
09:25 1019 30.09 848 25.04 -1 30.2 90 -2.4 27.6
09:30 1019 30.09 848 25.04 -1 30.1 90 -2.4 27.6
09:35 1019 30.09 849 25.07 -1 30.3 90 -2.5 27.5
09:40 1019 30.09 849 25.07 -1.1 30.1 90 -2.6 27.4
09:45 1019 30.09 849 25.07 -1.1 30 89 -2.7 27.2
09:50 1019 30.09 849 25.07 -1.1 30 89 -2.7 27.1
09:55 1019 30.09 849 25.07 -1.3 29.6 91 -2.7 27.1
10:00 1019 30.09 849 25.07 -1.2 29.8 90 -2.7 27.1
10:05 1019 30.09 849 25.07 -1 30.2 89 -2.6 27.4
10:10 1019 30.09 849 25.07 -0.9 30.5 87 -2.7 27.2
10:15 1019 30.09 849 25.07 -1 30.3 87 -2.8 27
10:20 1020 30.12 849 25.07 -1 30.1 88 -2.8 26.9
10:25 1020 30.12 849 25.07 -1.3 29.7 91 -2.6 27.3
10:30 1020 30.12 849 25.07 -1.1 30 91 -2.5 27.5
10:35 1020 30.12 849 25.07 -1.4 29.4 90 -2.8 26.9
10:40 1020 30.12 849 25.07 -1.3 29.6 90 -2.8 27
10:45 1020 30.12 849 25.07 -1.3 29.7 88 -2.9 26.7
10:50 1020 30.12 849 25.07 -1.3 29.6 88 -3 26.5
10:55 1020 30.12 849 25.07 -1.3 29.7 89 -2.9 26.8
11:00 1020 30.12 849 25.07 -1.4 29.5 88 -3.1 26.4
11:05 1020 30.12 849 25.07 -1.3 29.7 88 -3 26.6
11:10 1020 30.12 849 25.07 -1.3 29.7 87 -3.1 26.4
11:15 1020 30.12 849 25.07 -1 30.1 86 -3.2 26.3
11:20 1020 30.12 849 25.07 -1.2 29.8 88 -3 26.6
11:25 1020 30.12 849 25.07 -0.7 30.8 87 -2.6 27.3
11:30 1020 30.12 849 25.07 -0.4 31.4 85 -2.6 27.4
11:35 1020 30.12 849 25.07 -0.5 31.2 86 -2.5 27.6
11:40 1020 30.12 849 25.07 -0.9 30.4 86 -2.9 26.7
11:45 1020 30.12 849 25.07 -0.8 30.5 88 -2.5 27.5
11:50 1020 30.12 850 25.1 -0.8 30.5 89 -2.4 27.6
11:55 1020 30.12 850 25.1 -0.8 30.5 87 -2.7 27.1
12:00 1020 30.12 850 25.1 -1.4 29.5 90 -2.8 27
12:05 1020 30.12 850 25.1 -1.5 29.4 90 -3 26.7
12:10 1020 30.12 850 25.1 -1.3 29.7 90 -2.7 27.1
12:15 1020 30.12 850 25.1 -1.1 29.9 89 -2.7 27.1
12:20 1020 30.12 850 25.1 -1.2 29.8 89 -2.8 26.9
12:25 1021 30.15 850 25.1 -1.3 29.7 88 -3 26.6
12:30 1021 30.15 850 25.1 -1.2 29.8 89 -2.8 26.9
12:35 1021 30.15 850 25.1 -1.2 29.9 89 -2.8 26.9
12:40 1021 30.15 850 25.1 -1 30.3 84 -3.3 26.1
12:45 1021 30.15 850 25.1 -0.5 31.1 84 -2.8 26.9
12:50 1021 30.15 850 25.1 -0.6 30.9 88 -2.4 27.6
12:55 1021 30.15 850 25.1 -1.1 30.1 85 -3.2 26.2
13:00 1021 30.15 850 25.1 -1 30.3 86 -3 26.6
13:05 1021 30.15 850 25.1 -0.9 30.4 85 -3.1 26.4
13:10 1021 30.15 850 25.1 -1 30.2 84 -3.4 25.9
13:15 1021 30.15 850 25.1 -0.4 31.3 84 -2.8 26.9
13:20 1021 30.15 850 25.1 -0.4 31.2 82 -3.1 26.5
13:25 1021 30.15 850 25.1 -0.6 30.9 84 -3 26.7
13:30 1021 30.15 850 25.1 -0.8 30.6 83 -3.3 26.1
13:35 1021 30.15 850 25.1 -0.7 30.7 84 -3 26.5
13:40 1021 30.15 850 25.1 -0.2 31.7 81 -3 26.6
13:45 1021 30.15 850 25.1 -0.2 31.7 83 -2.6 27.2
13:50 1021 30.15 850 25.1 -0.1 31.8 80 -3.2 26.2
13:55 1021 30.15 850 25.1 -0.2 31.6 81 -3.1 26.5
14:00 1021 30.15 850 25.1 -0.2 31.6 81 -3.1 26.4
14:05 1021 30.15 850 25.1 -0.1 31.8 78 -3.5 25.7
14:10 1021 30.15 851 25.13 -0.2 31.7 80 -3.1 26.4
14:15 1021 30.15 851 25.13 -0.3 31.5 80 -3.3 26
14:20 1021 30.15 851 25.13 -0.1 31.7 80 -3.1 26.4
14:25 1021 30.15 851 25.13 -0.1 31.9 78 -3.5 25.7
14:30 1022 30.18 851 25.13 0.2 32.4 77 -3.3 26
14:35 1022 30.18 851 25.13 0.7 33.2 75 -3.3 26.1
14:40 1022 30.18 851 25.13 0.6 33 74 -3.6 25.5
14:45 1022 30.18 851 25.13 0.5 33 75 -3.4 25.9
14:50 1022 30.18 851 25.13 0.7 33.2 74 -3.4 25.8
14:55 1022 30.18 851 25.13 0.6 33 76 -3.2 26.2
15:00 1022 30.18 851 25.13 0.4 32.8 74 -3.7 25.4
15:05 1022 30.18 851 25.13 0.3 32.6 76 -3.5 25.8
15:10 1022 30.18 851 25.13 -0.1 31.9 79 -3.3 26.1
15:15 1022 30.18 851 25.13 -0.1 31.8 78 -3.5 25.8
15:20 1022 30.18 851 25.13 -0.1 31.7 77 -3.7 25.4
15:25 1022 30.18 851 25.13 -0.2 31.6 78 -3.6 25.5
15:30 1022 30.18 851 25.13 -0.1 31.9 75 -4 24.9
15:35 1022 30.18 851 25.13 -0 32 76 -3.8 25.2
15:40 1022 30.18 851 25.13 0.1 32.2 74 -3.9 25
15:45 1022 30.18 851 25.13 -0.1 31.8 74 -4.2 24.5
15:50 1022 30.18 851 25.13 -0.2 31.7 75 -4.2 24.5
15:55 1022 30.18 851 25.13 -0.2 31.7 75 -4 24.8
16:00 1022 30.18 851 25.13 -0 32 74 -4.1 24.5
16:05 1022 30.18 851 25.13 -0.1 31.9 76 -3.9 25
16:10 1022 30.18 851 25.13 -0.1 31.8 76 -3.8 25.1
16:15 1022 30.18 851 25.13 -0.1 31.9 77 -3.7 25.4
16:20 1022 30.18 851 25.13 -0.1 31.8 76 -3.8 25.1
16:25 1022 30.18 851 25.13 -0 32 76 -3.8 25.2
16:30 1022 30.18 851 25.13 0 32.1 75 -3.9 25
16:35 1022 30.18 851 25.13 0.3 32.5 74 -3.7 25.3
16:40 1022 30.18 851 25.13 0.4 32.7 73 -3.9 25
16:45 1022 30.18 851 25.13 0.4 32.7 73 -3.9 25
16:50 1022 30.18 851 25.13 0.3 32.6 75 -3.7 25.4
16:55 1022 30.18 851 25.13 0.5 32.9 74 -3.7 25.4
17:00 1022 30.18 852 25.16 0.7 33.3 74 -3.3 26
17:05 1022 30.18 852 25.16 0.6 33 72 -3.9 25
17:10 1022 30.18 852 25.16 0.2 32.3 73 -4.1 24.7
17:15 1022 30.18 852 25.16 0.2 32.3 73 -4 24.7
17:20 1023 30.21 852 25.16 0.1 32.1 73 -4.3 24.3
17:25 1023 30.21 852 25.16 0 32 73 -4.3 24.3
17:30 1023 30.21 852 25.16 -0 31.9 74 -4.2 24.4
17:35 1023 30.21 852 25.16 -0 32 74 -4.1 24.7
17:40 1023 30.21 852 25.16 0 32 74 -4.1 24.5
17:45 1023 30.21 852 25.16 -0 32 75 -4 24.9
17:50 1023 30.21 852 25.16 0.1 32.1 73 -4.1 24.5
17:55 1023 30.21 852 25.16 0.1 32.2 72 -4.3 24.2
18:00 1023 30.21 852 25.16 -0 31.9 73 -4.4 24.2
18:05 1023 30.21 852 25.16 -0.2 31.6 72 -4.6 23.7
18:10 1023 30.21 852 25.16 -0.4 31.3 75 -4.3 24.3
18:15 1023 30.21 852 25.16 -0.2 31.7 75 -4.1 24.6
18:20 1023 30.21 852 25.16 0.3 32.6 71 -4.3 24.2
18:25 1023 30.21 852 25.16 0.3 32.5 72 -4.3 24.3
18:30 1023 30.21 852 25.16 0.1 32.2 73 -4.1 24.5
18:35 1023 30.21 852 25.16 0.1 32.1 73 -4.2 24.5
18:40 1023 30.21 852 25.16 0.1 32.2 70 -4.8 23.4
18:45 1023 30.21 852 25.16 0 32 68 -5.1 22.7
18:50 1023 30.21 852 25.16 -0.1 31.9 71 -4.8 23.4
18:55 1023 30.21 852 25.16 0 32 70 -4.8 23.3
19:00 1023 30.21 852 25.16 -0.2 31.7 72 -4.6 23.7
19:05 1023 30.21 852 25.16 -0.3 31.5 72 -4.7 23.6
19:10 1023 30.21 852 25.16 -0.3 31.4 72 -4.7 23.5
19:15 1023 30.21 852 25.16 -0.5 31.1 73 -4.8 23.4
19:20 1023 30.21 852 25.16 -0.6 30.9 74 -4.6 23.8
19:25 1023 30.21 852 25.16 -0.5 31 75 -4.4 24.1
19:30 1023 30.21 852 25.16 -0.6 30.8 75 -4.5 24
19:35 1023 30.21 852 25.16 -0.5 31 76 -4.3 24.3
19:40 1023 30.21 853 25.19 -0.4 31.2 74 -4.5 23.8
19:45 1023 30.21 853 25.19 -0.5 31.1 74 -4.6 23.8
19:50 1023 30.21 853 25.19 -0.6 31 75 -4.5 23.8
19:55 1023 30.21 853 25.19 -0.7 30.7 76 -4.4 24.1
20:00 1023 30.21 853 25.19 -1 30.3 78 -4.4 24.1
20:05 1023 30.21 853 25.19 -1 30.2 79 -4.2 24.5
20:10 1023 30.21 853 25.19 -0.9 30.4 78 -4.2 24.4
20:15 1023 30.21 853 25.19 -1 30.2 78 -4.4 24.2
20:20 1023 30.21 853 25.19 -1.2 29.8 79 -4.4 24.1
20:25 1024 30.24 853 25.19 -1.3 29.6 80 -4.4 24.1
20:30 1024 30.24 853 25.19 -1.4 29.4 80 -4.4 24
20:35 1024 30.24 853 25.19 -1.5 29.3 82 -4.1 24.6
20:40 1024 30.24 853 25.19 -1.7 28.9 82 -4.5 23.9
20:45 1024 30.24 853 25.19 -1.8 28.7 81 -4.7 23.6
20:50 1024 30.24 853 25.19 -1.8 28.7 81 -4.7 23.6
20:55 1024 30.24 853 25.19 -1.9 28.7 81 -4.7 23.5
21:00 1024 30.24 853 25.19 -1.9 28.5 82 -4.7 23.6
21:05 1024 30.24 853 25.19 -1.9 28.5 82 -4.7 23.6
21:10 1024 30.24 853 25.19 -1.9 28.6 82 -4.5 23.9
21:15 1024 30.24 853 25.19 -1.9 28.5 82 -4.6 23.8
21:20 1024 30.24 853 25.19 -2 28.5 81 -4.8 23.4
21:25 1024 30.24 853 25.19 -2 28.4 82 -4.6 23.7
21:30 1024 30.24 853 25.19 -2 28.3 82 -4.7 23.6
21:35 1024 30.24 853 25.19 -2.3 27.9 83 -4.8 23.4
21:40 1024 30.24 853 25.19 -2.5 27.5 84 -4.9 23.2
21:45 1024 30.24 853 25.19 -2.3 27.8 83 -4.8 23.4
21:50 1024 30.24 853 25.19 -2.1 28.2 83 -4.7 23.6
21:55 1024 30.24 853 25.19 -2.2 28.1 82 -4.8 23.3
22:00 1024 30.24 853 25.19 -2.2 28.1 82 -4.8 23.4
22:05 1024 30.24 853 25.19 -2.2 28 82 -4.9 23.2
22:10 1024 30.24 853 25.19 -2.3 27.8 82 -5 23.1
22:15 1024 30.24 853 25.19 -2.4 27.6 83 -5 23.1
22:20 1024 30.24 853 25.19 -2.4 27.7 82 -5 23
22:25 1024 30.24 853 25.19 -2.4 27.7 83 -5 23
22:30 1024 30.24 853 25.19 -2.4 27.6 83 -4.9 23.2
22:35 1024 30.24 853 25.19 -2.4 27.7 83 -4.9 23.2
22:40 1024 30.24 853 25.19 -2.4 27.7 83 -4.8 23.3
22:45 1024 30.24 853 25.19 -2.4 27.7 84 -4.7 23.5
22:50 1024 30.24 853 25.19 -2.2 28 83 -4.7 23.5
22:55 1024 30.24 853 25.19 -2.2 28 82 -4.8 23.3
23:00 1024 30.24 853 25.19 -2.2 28 83 -4.8 23.3
23:05 1024 30.24 853 25.19 -2.4 27.7 83 -4.9 23.2
23:10 1024 30.24 853 25.19 -2.4 27.7 83 -5 23.1
23:15 1024 30.24 853 25.19 -2.4 27.7 83 -4.9 23.2
23:20 1024 30.24 853 25.19 -2.3 27.9 82 -4.9 23.1
23:25 1024 30.24 853 25.19 -2.4 27.6 83 -4.9 23.2
23:30 1024 30.24 853 25.19 -2.5 27.6 84 -4.9 23.3
23:35 1024 30.24 853 25.19 -2.3 27.8 83 -4.8 23.3
23:40 1024 30.24 853 25.19 -2.4 27.7 83 -4.9 23.2
23:45 1024 30.24 853 25.19 -2.5 27.5 84 -4.9 23.1
23:50 1024 30.24 853 25.19 -2.5 27.5 83 -5 22.9
23:55 1024 30.24 853 25.19 -2.5 27.5 84 -4.9 23.1
24:00 1024 30.24 853 25.19 -2.6 27.4 84 -4.9 23.1